sensor_id;sensor_type;location;lat;lon;timestamp;temperature;humidity
21844;DHT22;11084;52.482;9.108;2022-09-09T00:04:59;13.80;99.90
21844;DHT22;11084;52.482;9.108;2022-09-09T00:07:51;13.70;99.90
21844;DHT22;11084;52.482;9.108;2022-09-09T00:10:34;13.70;99.90
21844;DHT22;11084;52.482;9.108;2022-09-09T00:13:24;13.70;99.90
21844;DHT22;11084;52.482;9.108;2022-09-09T00:21:58;13.60;99.90
21844;DHT22;11084;52.482;9.108;2022-09-09T00:24:47;13.50;99.90
21844;DHT22;11084;52.482;9.108;2022-09-09T00:27:36;13.40;99.90
21844;DHT22;11084;52.482;9.108;2022-09-09T00:30:25;13.50;99.90
21844;DHT22;11084;52.482;9.108;2022-09-09T00:33:10;13.50;99.90
21844;DHT22;11084;52.482;9.108;2022-09-09T00:36:14;13.50;99.90
21844;DHT22;11084;52.482;9.108;2022-09-09T00:38:49;13.50;99.90
21844;DHT22;11084;52.482;9.108;2022-09-09T00:44:34;13.50;99.90
21844;DHT22;11084;52.482;9.108;2022-09-09T00:52:56;13.60;99.90
21844;DHT22;11084;52.482;9.108;2022-09-09T00:55:46;13.50;99.90
21844;DHT22;11084;52.482;9.108;2022-09-09T00:58:17;13.60;99.90
21844;DHT22;11084;52.482;9.108;2022-09-09T01:01:07;13.60;99.90
21844;DHT22;11084;52.482;9.108;2022-09-09T01:04:12;13.60;99.90
21844;DHT22;11084;52.482;9.108;2022-09-09T01:06:37;13.70;99.90
21844;DHT22;11084;52.482;9.108;2022-09-09T01:09:18;13.80;99.90
21844;DHT22;11084;52.482;9.108;2022-09-09T01:14:52;13.80;99.90
21844;DHT22;11084;52.482;9.108;2022-09-09T01:23:27;13.90;99.90
21844;DHT22;11084;52.482;9.108;2022-09-09T01:26:48;13.90;99.90
21844;DHT22;11084;52.482;9.108;2022-09-09T01:29:24;13.90;99.90
21844;DHT22;11084;52.482;9.108;2022-09-09T01:31:59;14.00;99.90
21844;DHT22;11084;52.482;9.108;2022-09-09T01:34:38;14.00;99.90
21844;DHT22;11084;52.482;9.108;2022-09-09T01:37:10;13.90;99.90
21844;DHT22;11084;52.482;9.108;2022-09-09T01:39:40;13.90;99.90
21844;DHT22;11084;52.482;9.108;2022-09-09T01:42:14;14.00;99.90
21844;DHT22;11084;52.482;9.108;2022-09-09T01:44:41;14.00;99.90
21844;DHT22;11084;52.482;9.108;2022-09-09T01:47:07;14.00;99.90
21844;DHT22;11084;52.482;9.108;2022-09-09T01:49:40;14.00;99.90
21844;DHT22;11084;52.482;9.108;2022-09-09T01:52:15;14.00;99.90
21844;DHT22;11084;52.482;9.108;2022-09-09T01:54:41;14.00;99.90
21844;DHT22;11084;52.482;9.108;2022-09-09T02:00:10;14.00;99.90
21844;DHT22;11084;52.482;9.108;2022-09-09T02:08:57;13.90;99.90
21844;DHT22;11084;52.482;9.108;2022-09-09T02:11:28;13.90;99.90
21844;DHT22;11084;52.482;9.108;2022-09-09T02:14:12;13.90;99.90
21844;DHT22;11084;52.482;9.108;2022-09-09T02:16:52;13.90;99.90
21844;DHT22;11084;52.482;9.108;2022-09-09T02:19:32;13.70;99.90
21844;DHT22;11084;52.482;9.108;2022-09-09T02:22:09;13.80;99.90
21844;DHT22;11084;52.482;9.108;2022-09-09T02:24:39;13.80;99.90
21844;DHT22;11084;52.482;9.108;2022-09-09T02:27:14;13.70;99.90
21844;DHT22;11084;52.482;9.108;2022-09-09T02:29:43;13.70;99.90
21844;DHT22;11084;52.482;9.108;2022-09-09T02:32:14;13.70;99.90
21844;DHT22;11084;52.482;9.108;2022-09-09T02:34:46;13.70;99.90
21844;DHT22;11084;52.482;9.108;2022-09-09T02:37:15;13.70;99.90
21844;DHT22;11084;52.482;9.108;2022-09-09T02:39:47;13.70;99.90
21844;DHT22;11084;52.482;9.108;2022-09-09T02:42:16;13.80;99.90
21844;DHT22;11084;52.482;9.108;2022-09-09T02:44:44;13.70;99.90
21844;DHT22;11084;52.482;9.108;2022-09-09T02:50:13;13.80;99.90
21844;DHT22;11084;52.482;9.108;2022-09-09T02:52:54;13.80;99.90
21844;DHT22;11084;52.482;9.108;2022-09-09T02:58:32;13.90;99.90
21844;DHT22;11084;52.482;9.108;2022-09-09T03:01:03;13.80;99.90
21844;DHT22;11084;52.482;9.108;2022-09-09T03:03:32;13.90;99.90
21844;DHT22;11084;52.482;9.108;2022-09-09T03:06:00;13.90;99.90
21844;DHT22;11084;52.482;9.108;2022-09-09T03:08:29;13.90;99.90
21844;DHT22;11084;52.482;9.108;2022-09-09T03:10:59;14.00;99.90
21844;DHT22;11084;52.482;9.108;2022-09-09T03:13:29;14.00;99.90
21844;DHT22;11084;52.482;9.108;2022-09-09T03:15:55;14.00;99.90
21844;DHT22;11084;52.482;9.108;2022-09-09T03:18:22;14.10;99.90
21844;DHT22;11084;52.482;9.108;2022-09-09T03:20:51;14.10;99.90
21844;DHT22;11084;52.482;9.108;2022-09-09T03:23:20;14.10;99.90
21844;DHT22;11084;52.482;9.108;2022-09-09T03:25:49;14.10;99.90
21844;DHT22;11084;52.482;9.108;2022-09-09T03:28:19;14.10;99.90
21844;DHT22;11084;52.482;9.108;2022-09-09T03:33:14;14.20;99.90
21844;DHT22;11084;52.482;9.108;2022-09-09T03:35:46;14.20;99.90
21844;DHT22;11084;52.482;9.108;2022-09-09T03:38:18;14.10;99.90
21844;DHT22;11084;52.482;9.108;2022-09-09T03:40:52;14.20;99.90
21844;DHT22;11084;52.482;9.108;2022-09-09T03:43:24;14.20;99.90
21844;DHT22;11084;52.482;9.108;2022-09-09T03:45:53;14.20;99.90
21844;DHT22;11084;52.482;9.108;2022-09-09T03:48:24;14.10;99.90
21844;DHT22;11084;52.482;9.108;2022-09-09T03:50:53;14.10;99.90
21844;DHT22;11084;52.482;9.108;2022-09-09T03:53:23;14.10;99.90
21844;DHT22;11084;52.482;9.108;2022-09-09T03:55:52;14.10;99.90
21844;DHT22;11084;52.482;9.108;2022-09-09T03:58:25;14.20;99.90
21844;DHT22;11084;52.482;9.108;2022-09-09T04:00:57;14.20;99.90
21844;DHT22;11084;52.482;9.108;2022-09-09T04:03:28;14.10;99.90
21844;DHT22;11084;52.482;9.108;2022-09-09T04:05:57;14.10;99.90
21844;DHT22;11084;52.482;9.108;2022-09-09T04:08:26;14.20;99.90
21844;DHT22;11084;52.482;9.108;2022-09-09T04:10:53;14.20;99.90
21844;DHT22;11084;52.482;9.108;2022-09-09T04:13:24;14.20;99.90
21844;DHT22;11084;52.482;9.108;2022-09-09T04:15:56;11.90;99.90
21844;DHT22;11084;52.482;9.108;2022-09-09T04:18:24;14.10;99.90
21844;DHT22;11084;52.482;9.108;2022-09-09T04:20:52;14.10;99.90
21844;DHT22;11084;52.482;9.108;2022-09-09T04:23:21;14.20;99.90
21844;DHT22;11084;52.482;9.108;2022-09-09T04:25:49;14.20;99.90
21844;DHT22;11084;52.482;9.108;2022-09-09T04:28:19;14.20;99.90
21844;DHT22;11084;52.482;9.108;2022-09-09T04:30:47;14.20;99.90
21844;DHT22;11084;52.482;9.108;2022-09-09T04:33:14;14.20;99.90
21844;DHT22;11084;52.482;9.108;2022-09-09T04:35:49;14.20;99.90
21844;DHT22;11084;52.482;9.108;2022-09-09T04:38:17;14.20;99.90
21844;DHT22;11084;52.482;9.108;2022-09-09T04:40:46;14.20;99.90
21844;DHT22;11084;52.482;9.108;2022-09-09T04:43:14;14.20;99.90
21844;DHT22;11084;52.482;9.108;2022-09-09T04:45:42;14.20;99.90
21844;DHT22;11084;52.482;9.108;2022-09-09T04:48:09;14.20;99.90
21844;DHT22;11084;52.482;9.108;2022-09-09T04:50:35;14.20;99.90
21844;DHT22;11084;52.482;9.108;2022-09-09T04:53:03;14.20;99.90
21844;DHT22;11084;52.482;9.108;2022-09-09T04:55:31;14.20;99.90
21844;DHT22;11084;52.482;9.108;2022-09-09T04:57:58;14.30;99.90
21844;DHT22;11084;52.482;9.108;2022-09-09T05:00:28;14.20;99.90
21844;DHT22;11084;52.482;9.108;2022-09-09T05:02:54;14.30;99.90
21844;DHT22;11084;52.482;9.108;2022-09-09T05:05:21;14.30;99.90
21844;DHT22;11084;52.482;9.108;2022-09-09T05:07:48;14.20;99.90
21844;DHT22;11084;52.482;9.108;2022-09-09T05:10:15;14.20;99.90
21844;DHT22;11084;52.482;9.108;2022-09-09T05:12:52;14.30;99.90
21844;DHT22;11084;52.482;9.108;2022-09-09T05:20:14;14.40;99.90
21844;DHT22;11084;52.482;9.108;2022-09-09T05:22:40;14.30;99.90
21844;DHT22;11084;52.482;9.108;2022-09-09T05:25:06;14.40;99.90
21844;DHT22;11084;52.482;9.108;2022-09-09T05:27:34;14.40;99.90
21844;DHT22;11084;52.482;9.108;2022-09-09T05:30:00;14.40;99.90
21844;DHT22;11084;52.482;9.108;2022-09-09T05:32:26;14.50;99.90
21844;DHT22;11084;52.482;9.108;2022-09-09T05:34:55;14.50;99.90
21844;DHT22;11084;52.482;9.108;2022-09-09T05:37:22;14.90;99.90
21844;DHT22;11084;52.482;9.108;2022-09-09T05:39:51;15.10;99.90
21844;DHT22;11084;52.482;9.108;2022-09-09T05:44:43;15.20;99.90
21844;DHT22;11084;52.482;9.108;2022-09-09T05:47:11;15.20;99.90
21844;DHT22;11084;52.482;9.108;2022-09-09T05:49:37;15.30;99.90
21844;DHT22;11084;52.482;9.108;2022-09-09T05:52:03;15.70;99.90
21844;DHT22;11084;52.482;9.108;2022-09-09T05:54:30;16.10;99.90
21844;DHT22;11084;52.482;9.108;2022-09-09T05:56:56;16.60;99.90
21844;DHT22;11084;52.482;9.108;2022-09-09T05:59:23;16.90;99.90
21844;DHT22;11084;52.482;9.108;2022-09-09T06:04:26;17.50;99.90
21844;DHT22;11084;52.482;9.108;2022-09-09T06:06:53;17.80;99.90
21844;DHT22;11084;52.482;9.108;2022-09-09T06:09:21;17.90;99.90
21844;DHT22;11084;52.482;9.108;2022-09-09T06:11:48;18.10;99.90
21844;DHT22;11084;52.482;9.108;2022-09-09T06:14:14;18.10;99.90
21844;DHT22;11084;52.482;9.108;2022-09-09T06:16:44;18.00;99.90
21844;DHT22;11084;52.482;9.108;2022-09-09T06:19:16;17.70;99.90
21844;DHT22;11084;52.482;9.108;2022-09-09T06:21:43;17.80;99.90
21844;DHT22;11084;52.482;9.108;2022-09-09T06:24:11;17.70;99.90
21844;DHT22;11084;52.482;9.108;2022-09-09T06:26:40;17.30;99.90
21844;DHT22;11084;52.482;9.108;2022-09-09T06:29:07;17.30;99.90
21844;DHT22;11084;52.482;9.108;2022-09-09T06:31:35;17.10;99.90
21844;DHT22;11084;52.482;9.108;2022-09-09T06:34:12;17.00;99.90
21844;DHT22;11084;52.482;9.108;2022-09-09T06:36:41;17.00;99.90
21844;DHT22;11084;52.482;9.108;2022-09-09T06:39:07;17.00;99.90
21844;DHT22;11084;52.482;9.108;2022-09-09T06:41:37;17.00;99.90
21844;DHT22;11084;52.482;9.108;2022-09-09T06:44:05;17.00;99.90
21844;DHT22;11084;52.482;9.108;2022-09-09T06:46:39;17.20;99.90
21844;DHT22;11084;52.482;9.108;2022-09-09T06:49:07;17.20;99.90
21844;DHT22;11084;52.482;9.108;2022-09-09T06:51:36;17.90;99.90
21844;DHT22;11084;52.482;9.108;2022-09-09T06:54:10;18.20;99.90
21844;DHT22;11084;52.482;9.108;2022-09-09T06:56:39;18.20;99.90
21844;DHT22;11084;52.482;9.108;2022-09-09T06:59:12;18.40;99.90
21844;DHT22;11084;52.482;9.108;2022-09-09T07:01:41;18.70;99.90
21844;DHT22;11084;52.482;9.108;2022-09-09T07:04:12;18.70;99.90
21844;DHT22;11084;52.482;9.108;2022-09-09T07:06:43;18.80;99.90
21844;DHT22;11084;52.482;9.108;2022-09-09T07:09:15;18.70;99.90
21844;DHT22;11084;52.482;9.108;2022-09-09T07:11:51;18.70;99.90
21844;DHT22;11084;52.482;9.108;2022-09-09T07:14:20;18.60;99.90
21844;DHT22;11084;52.482;9.108;2022-09-09T07:16:52;18.60;99.90
21844;DHT22;11084;52.482;9.108;2022-09-09T07:19:18;18.60;99.90
21844;DHT22;11084;52.482;9.108;2022-09-09T07:21:47;18.50;99.90
21844;DHT22;11084;52.482;9.108;2022-09-09T07:24:17;18.60;99.90
21844;DHT22;11084;52.482;9.108;2022-09-09T07:26:43;18.60;99.90
21844;DHT22;11084;52.482;9.108;2022-09-09T07:29:12;18.60;99.90
21844;DHT22;11084;52.482;9.108;2022-09-09T07:31:41;19.20;99.90
21844;DHT22;11084;52.482;9.108;2022-09-09T07:34:11;19.90;99.90
21844;DHT22;11084;52.482;9.108;2022-09-09T07:36:39;20.30;99.90
21844;DHT22;11084;52.482;9.108;2022-09-09T07:39:10;21.00;99.90
21844;DHT22;11084;52.482;9.108;2022-09-09T07:41:46;21.40;99.90
21844;DHT22;11084;52.482;9.108;2022-09-09T07:44:21;21.90;99.90
21844;DHT22;11084;52.482;9.108;2022-09-09T07:46:53;22.40;99.90
21844;DHT22;11084;52.482;9.108;2022-09-09T07:49:25;22.50;99.90
21844;DHT22;11084;52.482;9.108;2022-09-09T07:51:51;22.60;99.90
21844;DHT22;11084;52.482;9.108;2022-09-09T07:54:19;22.30;99.90
21844;DHT22;11084;52.482;9.108;2022-09-09T07:56:49;22.20;99.90
21844;DHT22;11084;52.482;9.108;2022-09-09T07:59:17;22.10;99.90
21844;DHT22;11084;52.482;9.108;2022-09-09T08:01:49;22.00;99.90
21844;DHT22;11084;52.482;9.108;2022-09-09T08:04:20;21.90;99.90
21844;DHT22;11084;52.482;9.108;2022-09-09T08:06:53;21.90;99.90
21844;DHT22;11084;52.482;9.108;2022-09-09T08:09:23;21.80;99.90
21844;DHT22;11084;52.482;9.108;2022-09-09T08:14:28;21.60;99.90
21844;DHT22;11084;52.482;9.108;2022-09-09T08:16:56;21.70;99.90
21844;DHT22;11084;52.482;9.108;2022-09-09T08:19:25;21.90;99.90
21844;DHT22;11084;52.482;9.108;2022-09-09T08:21:59;22.10;99.90
21844;DHT22;11084;52.482;9.108;2022-09-09T08:24:27;22.40;99.90
21844;DHT22;11084;52.482;9.108;2022-09-09T08:26:54;22.40;99.90
21844;DHT22;11084;52.482;9.108;2022-09-09T08:29:23;22.80;99.90
21844;DHT22;11084;52.482;9.108;2022-09-09T08:31:55;22.80;99.90
21844;DHT22;11084;52.482;9.108;2022-09-09T08:34:24;22.90;99.90
21844;DHT22;11084;52.482;9.108;2022-09-09T08:36:53;23.40;99.90
21844;DHT22;11084;52.482;9.108;2022-09-09T08:39:24;23.80;99.90
21844;DHT22;11084;52.482;9.108;2022-09-09T08:50:27;23.50;99.90
21844;DHT22;11084;52.482;9.108;2022-09-09T08:53:20;23.30;99.90
21844;DHT22;11084;52.482;9.108;2022-09-09T08:55:59;23.10;99.90
21844;DHT22;11084;52.482;9.108;2022-09-09T08:58:50;23.10;99.90
21844;DHT22;11084;52.482;9.108;2022-09-09T09:07:21;22.60;99.90
21844;DHT22;11084;52.482;9.108;2022-09-09T09:12:41;22.60;99.90
21844;DHT22;11084;52.482;9.108;2022-09-09T09:15:21;22.60;99.90
21844;DHT22;11084;52.482;9.108;2022-09-09T09:17:53;22.60;99.90
21844;DHT22;11084;52.482;9.108;2022-09-09T09:20:38;22.50;99.90
21844;DHT22;11084;52.482;9.108;2022-09-09T09:23:35;22.50;99.90
21844;DHT22;11084;52.482;9.108;2022-09-09T09:26:10;22.90;99.90
21844;DHT22;11084;52.482;9.108;2022-09-09T09:28:39;22.50;99.90
21844;DHT22;11084;52.482;9.108;2022-09-09T09:31:13;22.50;99.90
21844;DHT22;11084;52.482;9.108;2022-09-09T09:33:51;22.40;99.90
21844;DHT22;11084;52.482;9.108;2022-09-09T09:36:33;22.50;99.90
21844;DHT22;11084;52.482;9.108;2022-09-09T09:39:09;22.60;99.90
21844;DHT22;11084;52.482;9.108;2022-09-09T09:41:41;22.50;99.90
21844;DHT22;11084;52.482;9.108;2022-09-09T09:44:28;22.60;99.90
21844;DHT22;11084;52.482;9.108;2022-09-09T09:47:22;22.60;99.90
21844;DHT22;11084;52.482;9.108;2022-09-09T09:52:28;22.60;99.90
21844;DHT22;11084;52.482;9.108;2022-09-09T09:54:58;22.70;99.90
21844;DHT22;11084;52.482;9.108;2022-09-09T09:57:29;22.70;99.90
21844;DHT22;11084;52.482;9.108;2022-09-09T10:00:17;22.80;99.90
21844;DHT22;11084;52.482;9.108;2022-09-09T10:02:51;23.00;99.90
21844;DHT22;11084;52.482;9.108;2022-09-09T10:05:27;23.00;99.90
21844;DHT22;11084;52.482;9.108;2022-09-09T10:08:05;23.20;99.90
21844;DHT22;11084;52.482;9.108;2022-09-09T10:17:09;23.80;99.90
21844;DHT22;11084;52.482;9.108;2022-09-09T10:19:42;23.80;99.90
21844;DHT22;11084;52.482;9.108;2022-09-09T10:22:27;23.70;99.90
21844;DHT22;11084;52.482;9.108;2022-09-09T10:33:44;22.90;99.90
21844;DHT22;11084;52.482;9.108;2022-09-09T10:36:22;23.00;99.90
21844;DHT22;11084;52.482;9.108;2022-09-09T10:39:04;22.80;99.90
21844;DHT22;11084;52.482;9.108;2022-09-09T10:50:43;21.70;99.90
21844;DHT22;11084;52.482;9.108;2022-09-09T10:56:15;20.70;99.90
21844;DHT22;11084;52.482;9.108;2022-09-09T11:01:41;20.40;99.90
21844;DHT22;11084;52.482;9.108;2022-09-09T11:04:22;20.20;99.90
21844;DHT22;11084;52.482;9.108;2022-09-09T11:06:55;20.10;99.90
21844;DHT22;11084;52.482;9.108;2022-09-09T11:09:25;20.10;99.90
21844;DHT22;11084;52.482;9.108;2022-09-09T11:11:57;19.90;99.90
21844;DHT22;11084;52.482;9.108;2022-09-09T11:14:55;19.90;99.90
21844;DHT22;11084;52.482;9.108;2022-09-09T11:17:42;19.80;99.90
21844;DHT22;11084;52.482;9.108;2022-09-09T11:20:13;19.80;99.90
21844;DHT22;11084;52.482;9.108;2022-09-09T11:22:46;19.60;99.90
21844;DHT22;11084;52.482;9.108;2022-09-09T11:25:23;19.60;99.90
21844;DHT22;11084;52.482;9.108;2022-09-09T11:37:07;19.30;99.90
21844;DHT22;11084;52.482;9.108;2022-09-09T11:42:23;19.30;99.90
21844;DHT22;11084;52.482;9.108;2022-09-09T11:44:50;19.30;99.90
21844;DHT22;11084;52.482;9.108;2022-09-09T11:47:28;19.40;99.90
21844;DHT22;11084;52.482;9.108;2022-09-09T11:50:45;19.40;99.90
21844;DHT22;11084;52.482;9.108;2022-09-09T11:53:22;19.40;99.90
21844;DHT22;11084;52.482;9.108;2022-09-09T11:56:11;19.50;99.90
21844;DHT22;11084;52.482;9.108;2022-09-09T11:58:44;19.60;99.90
21844;DHT22;11084;52.482;9.108;2022-09-09T12:01:29;19.70;99.90
21844;DHT22;11084;52.482;9.108;2022-09-09T12:04:13;20.00;99.90
21844;DHT22;11084;52.482;9.108;2022-09-09T12:06:50;21.30;99.90
21844;DHT22;11084;52.482;9.108;2022-09-09T12:19:45;21.00;99.90
21844;DHT22;11084;52.482;9.108;2022-09-09T12:22:28;21.20;99.90
21844;DHT22;11084;52.482;9.108;2022-09-09T12:34:39;22.00;99.90
21844;DHT22;11084;52.482;9.108;2022-09-09T12:40:23;22.40;99.90
21844;DHT22;11084;52.482;9.108;2022-09-09T12:42:52;22.50;99.90
21844;DHT22;11084;52.482;9.108;2022-09-09T12:45:26;22.50;99.90
21844;DHT22;11084;52.482;9.108;2022-09-09T12:48:09;22.40;99.90
21844;DHT22;11084;52.482;9.108;2022-09-09T12:50:51;22.50;99.90
21844;DHT22;11084;52.482;9.108;2022-09-09T12:53:23;22.30;99.90
21844;DHT22;11084;52.482;9.108;2022-09-09T12:58:32;22.50;99.90
21844;DHT22;11084;52.482;9.108;2022-09-09T13:00:59;22.50;99.90
21844;DHT22;11084;52.482;9.108;2022-09-09T13:03:27;22.60;99.90
21844;DHT22;11084;52.482;9.108;2022-09-09T13:05:54;22.60;99.90
21844;DHT22;11084;52.482;9.108;2022-09-09T13:08:25;22.60;99.90
21844;DHT22;11084;52.482;9.108;2022-09-09T13:11:04;22.60;99.90
21844;DHT22;11084;52.482;9.108;2022-09-09T13:13:38;22.60;99.90
21844;DHT22;11084;52.482;9.108;2022-09-09T13:16:16;22.60;99.90
21844;DHT22;11084;52.482;9.108;2022-09-09T13:18:45;22.60;99.90
21844;DHT22;11084;52.482;9.108;2022-09-09T13:21:12;22.70;99.90
21844;DHT22;11084;52.482;9.108;2022-09-09T13:23:38;22.70;99.90
21844;DHT22;11084;52.482;9.108;2022-09-09T13:26:25;22.80;99.90
21844;DHT22;11084;52.482;9.108;2022-09-09T13:28:53;23.00;99.90
21844;DHT22;11084;52.482;9.108;2022-09-09T13:31:28;23.00;99.90
21844;DHT22;11084;52.482;9.108;2022-09-09T13:33:57;23.10;99.90
21844;DHT22;11084;52.482;9.108;2022-09-09T13:36:34;23.20;99.90
21844;DHT22;11084;52.482;9.108;2022-09-09T13:39:03;23.30;99.90
21844;DHT22;11084;52.482;9.108;2022-09-09T13:41:36;23.40;99.90
21844;DHT22;11084;52.482;9.108;2022-09-09T13:44:03;23.50;99.90
21844;DHT22;11084;52.482;9.108;2022-09-09T13:46:40;23.60;99.90
21844;DHT22;11084;52.482;9.108;2022-09-09T13:51:44;23.70;99.90
21844;DHT22;11084;52.482;9.108;2022-09-09T13:54:14;23.80;99.90
21844;DHT22;11084;52.482;9.108;2022-09-09T13:56:44;23.90;99.90
21844;DHT22;11084;52.482;9.108;2022-09-09T13:59:16;23.90;99.90
21844;DHT22;11084;52.482;9.108;2022-09-09T14:01:46;24.00;99.90
21844;DHT22;11084;52.482;9.108;2022-09-09T14:04:12;24.20;99.90
21844;DHT22;11084;52.482;9.108;2022-09-09T14:06:39;24.30;99.60
21844;DHT22;11084;52.482;9.108;2022-09-09T14:09:07;24.30;98.60
21844;DHT22;11084;52.482;9.108;2022-09-09T14:11:36;24.10;97.40
21844;DHT22;11084;52.482;9.108;2022-09-09T14:14:02;24.20;97.80
21844;DHT22;11084;52.482;9.108;2022-09-09T14:16:30;24.10;96.70
21844;DHT22;11084;52.482;9.108;2022-09-09T14:18:57;24.10;96.70
21844;DHT22;11084;52.482;9.108;2022-09-09T14:21:25;24.10;96.90
21844;DHT22;11084;52.482;9.108;2022-09-09T14:23:52;23.90;96.30
21844;DHT22;11084;52.482;9.108;2022-09-09T14:26:19;23.80;96.30
21844;DHT22;11084;52.482;9.108;2022-09-09T14:28:48;23.70;96.30
21844;DHT22;11084;52.482;9.108;2022-09-09T14:31:16;23.50;96.10
21844;DHT22;11084;52.482;9.108;2022-09-09T14:36:11;23.40;96.20
21844;DHT22;11084;52.482;9.108;2022-09-09T14:38:38;23.30;96.40
21844;DHT22;11084;52.482;9.108;2022-09-09T14:41:09;23.20;96.70
21844;DHT22;11084;52.482;9.108;2022-09-09T14:43:40;23.30;97.00
21844;DHT22;11084;52.482;9.108;2022-09-09T14:46:11;23.20;96.60
21844;DHT22;11084;52.482;9.108;2022-09-09T14:48:39;23.20;96.60
21844;DHT22;11084;52.482;9.108;2022-09-09T14:51:20;23.20;96.90
21844;DHT22;11084;52.482;9.108;2022-09-09T14:53:50;23.20;96.50
21844;DHT22;11084;52.482;9.108;2022-09-09T14:56:20;23.20;96.70
21844;DHT22;11084;52.482;9.108;2022-09-09T14:58:49;23.10;97.00
21844;DHT22;11084;52.482;9.108;2022-09-09T15:01:17;23.10;97.30
21844;DHT22;11084;52.482;9.108;2022-09-09T15:03:53;23.10;97.20
21844;DHT22;11084;52.482;9.108;2022-09-09T15:06:22;22.90;97.40
21844;DHT22;11084;52.482;9.108;2022-09-09T15:08:50;22.80;97.60
21844;DHT22;11084;52.482;9.108;2022-09-09T15:11:18;22.80;97.70
21844;DHT22;11084;52.482;9.108;2022-09-09T15:13:44;22.60;97.10
21844;DHT22;11084;52.482;9.108;2022-09-09T15:16:12;22.60;97.30
21844;DHT22;11084;52.482;9.108;2022-09-09T15:18:41;22.60;97.60
21844;DHT22;11084;52.482;9.108;2022-09-09T15:21:16;22.60;97.50
21844;DHT22;11084;52.482;9.108;2022-09-09T15:23:45;22.60;97.50
21844;DHT22;11084;52.482;9.108;2022-09-09T15:26:11;22.60;97.60
21844;DHT22;11084;52.482;9.108;2022-09-09T15:28:40;22.60;97.40
21844;DHT22;11084;52.482;9.108;2022-09-09T15:31:11;22.60;96.70
21844;DHT22;11084;52.482;9.108;2022-09-09T15:33:54;22.70;97.10
21844;DHT22;11084;52.482;9.108;2022-09-09T15:39:01;22.50;96.80
21844;DHT22;11084;52.482;9.108;2022-09-09T15:41:29;22.30;97.30
21844;DHT22;11084;52.482;9.108;2022-09-09T15:43:57;22.30;97.80
21844;DHT22;11084;52.482;9.108;2022-09-09T15:46:35;22.20;98.20
21844;DHT22;11084;52.482;9.108;2022-09-09T15:51:52;22.10;97.70
21844;DHT22;11084;52.482;9.108;2022-09-09T15:54:24;22.10;97.70
21844;DHT22;11084;52.482;9.108;2022-09-09T15:56:58;22.00;97.90
21844;DHT22;11084;52.482;9.108;2022-09-09T15:59:27;22.00;97.90
21844;DHT22;11084;52.482;9.108;2022-09-09T16:01:55;22.00;98.10
21844;DHT22;11084;52.482;9.108;2022-09-09T16:04:23;21.90;98.00
21844;DHT22;11084;52.482;9.108;2022-09-09T16:07:01;21.90;98.50
21844;DHT22;11084;52.482;9.108;2022-09-09T16:09:29;21.90;98.10
21844;DHT22;11084;52.482;9.108;2022-09-09T16:11:57;21.90;98.40
21844;DHT22;11084;52.482;9.108;2022-09-09T16:14:27;21.70;98.40
21844;DHT22;11084;52.482;9.108;2022-09-09T16:16:53;21.80;98.70
21844;DHT22;11084;52.482;9.108;2022-09-09T16:19:19;21.70;99.30
21844;DHT22;11084;52.482;9.108;2022-09-09T16:21:48;21.50;98.80
21844;DHT22;11084;52.482;9.108;2022-09-09T16:24:16;21.50;99.50
21844;DHT22;11084;52.482;9.108;2022-09-09T16:26:46;21.50;99.70
21844;DHT22;11084;52.482;9.108;2022-09-09T16:29:15;21.40;99.40
21844;DHT22;11084;52.482;9.108;2022-09-09T16:31:44;21.30;99.60
21844;DHT22;11084;52.482;9.108;2022-09-09T16:34:11;21.20;99.40
21844;DHT22;11084;52.482;9.108;2022-09-09T16:36:38;21.10;99.00
21844;DHT22;11084;52.482;9.108;2022-09-09T16:39:11;21.00;99.00
21844;DHT22;11084;52.482;9.108;2022-09-09T16:41:39;21.00;98.80
21844;DHT22;11084;52.482;9.108;2022-09-09T16:44:08;20.80;99.00
21844;DHT22;11084;52.482;9.108;2022-09-09T16:46:37;20.80;98.90
21844;DHT22;11084;52.482;9.108;2022-09-09T16:49:07;20.70;99.20
21844;DHT22;11084;52.482;9.108;2022-09-09T16:51:43;20.50;99.10
21844;DHT22;11084;52.482;9.108;2022-09-09T16:54:14;20.50;99.20
21844;DHT22;11084;52.482;9.108;2022-09-09T16:56:44;20.40;99.20
21844;DHT22;11084;52.482;9.108;2022-09-09T16:59:22;20.30;99.80
21844;DHT22;11084;52.482;9.108;2022-09-09T17:01:51;20.30;99.80
21844;DHT22;11084;52.482;9.108;2022-09-09T17:04:26;20.20;99.90
21844;DHT22;11084;52.482;9.108;2022-09-09T17:06:55;20.10;99.90
21844;DHT22;11084;52.482;9.108;2022-09-09T17:09:23;20.20;99.90
21844;DHT22;11084;52.482;9.108;2022-09-09T17:11:54;20.20;99.90
21844;DHT22;11084;52.482;9.108;2022-09-09T17:14:21;20.00;99.90
21844;DHT22;11084;52.482;9.108;2022-09-09T17:16:48;20.00;99.90
21844;DHT22;11084;52.482;9.108;2022-09-09T17:19:14;19.90;99.90
21844;DHT22;11084;52.482;9.108;2022-09-09T17:24:07;19.90;99.90
21844;DHT22;11084;52.482;9.108;2022-09-09T17:26:33;19.90;99.90
21844;DHT22;11084;52.482;9.108;2022-09-09T17:31:28;19.70;99.90
21844;DHT22;11084;52.482;9.108;2022-09-09T17:33:55;19.70;99.90
21844;DHT22;11084;52.482;9.108;2022-09-09T17:36:31;19.60;99.90
21844;DHT22;11084;52.482;9.108;2022-09-09T17:39:00;19.60;99.90
21844;DHT22;11084;52.482;9.108;2022-09-09T17:41:35;19.50;99.90
21844;DHT22;11084;52.482;9.108;2022-09-09T17:44:05;19.50;99.90
21844;DHT22;11084;52.482;9.108;2022-09-09T17:46:34;19.40;99.90
21844;DHT22;11084;52.482;9.108;2022-09-09T17:49:10;19.40;99.90
21844;DHT22;11084;52.482;9.108;2022-09-09T17:51:41;19.30;99.90
21844;DHT22;11084;52.482;9.108;2022-09-09T17:54:13;19.30;99.90
21844;DHT22;11084;52.482;9.108;2022-09-09T17:56:42;19.10;99.90
21844;DHT22;11084;52.482;9.108;2022-09-09T17:59:10;19.10;99.90
21844;DHT22;11084;52.482;9.108;2022-09-09T18:01:40;19.10;99.90
21844;DHT22;11084;52.482;9.108;2022-09-09T18:04:10;19.10;99.90
21844;DHT22;11084;52.482;9.108;2022-09-09T18:06:46;19.00;99.90
21844;DHT22;11084;52.482;9.108;2022-09-09T18:09:19;19.00;99.90
21844;DHT22;11084;52.482;9.108;2022-09-09T18:11:50;19.00;99.90
21844;DHT22;11084;52.482;9.108;2022-09-09T18:14:25;18.70;99.90
21844;DHT22;11084;52.482;9.108;2022-09-09T18:16:53;18.70;99.90
21844;DHT22;11084;52.482;9.108;2022-09-09T18:19:21;18.40;99.90
21844;DHT22;11084;52.482;9.108;2022-09-09T18:21:49;18.40;99.90
21844;DHT22;11084;52.482;9.108;2022-09-09T18:24:17;18.20;99.90
21844;DHT22;11084;52.482;9.108;2022-09-09T18:26:46;18.00;99.90
21844;DHT22;11084;52.482;9.108;2022-09-09T18:29:16;17.90;99.90
21844;DHT22;11084;52.482;9.108;2022-09-09T18:31:47;17.90;99.90
21844;DHT22;11084;52.482;9.108;2022-09-09T18:34:15;17.70;99.90
21844;DHT22;11084;52.482;9.108;2022-09-09T18:36:44;17.60;99.90
21844;DHT22;11084;52.482;9.108;2022-09-09T18:39:13;17.40;99.90
21844;DHT22;11084;52.482;9.108;2022-09-09T18:41:49;17.30;99.90